createdAt,value
2022-10-07T00:04:15.108Z,2.4
2022-10-07T00:10:36.061Z,2.4
2022-10-07T00:16:59.245Z,2.2
2022-10-07T00:23:20.111Z,2.2
2022-10-07T00:29:44.021Z,1.3
2022-10-07T00:36:03.966Z,1.3
2022-10-07T00:42:33.605Z,2
2022-10-07T00:48:53.481Z,2
2022-10-07T00:55:16.574Z,2
2022-10-07T01:01:36.518Z,2
2022-10-07T01:07:59.678Z,1.6
2022-10-07T01:14:19.598Z,1.6
2022-10-07T01:20:42.548Z,2.4
2022-10-07T01:27:02.465Z,2.4
2022-10-07T01:33:25.773Z,2
2022-10-07T01:39:45.645Z,2
2022-10-07T01:46:08.808Z,2.9
2022-10-07T01:52:28.714Z,2.9
2022-10-07T01:58:51.687Z,2.1
2022-10-07T02:05:11.596Z,2.1
2022-10-07T02:11:34.681Z,1.8
2022-10-07T02:17:54.595Z,1.8
2022-10-07T02:24:17.478Z,2.6
2022-10-07T02:30:37.716Z,2.6
2022-10-07T02:37:00.480Z,1.5
2022-10-07T02:43:20.543Z,1.5
2022-10-07T02:49:43.667Z,2.5
2022-10-07T02:56:03.660Z,2.5
2022-10-07T03:02:26.577Z,1.7
2022-10-07T03:08:46.532Z,1.7
2022-10-07T03:25:33.130Z,2.6
2022-10-07T03:31:53.491Z,2.6
2022-10-07T03:38:16.467Z,3.7
2022-10-07T03:44:36.556Z,3.7
2022-10-07T03:50:59.626Z,3.7
2022-10-07T03:57:19.639Z,3.7
2022-10-07T04:03:42.587Z,3.5
2022-10-07T04:10:02.618Z,3.5
2022-10-07T04:16:25.596Z,1.3
2022-10-07T04:22:45.608Z,1.3
2022-10-07T04:29:08.526Z,2.5
2022-10-07T04:35:28.477Z,2.5
2022-10-07T04:41:51.833Z,0.9
2022-10-07T04:48:11.783Z,0.9
2022-10-07T04:54:34.633Z,3.6
2022-10-07T05:00:54.780Z,3.6
2022-10-07T05:07:17.607Z,2
2022-10-07T05:13:37.595Z,2
2022-10-07T05:20:00.511Z,1.2
2022-10-07T05:26:20.494Z,1.2
2022-10-07T05:32:43.672Z,1
2022-10-07T05:39:03.738Z,1
2022-10-07T05:45:26.719Z,1.4
2022-10-07T05:51:46.602Z,1.4
2022-10-07T05:58:09.772Z,2.7
2022-10-07T06:04:29.509Z,2.7
2022-10-07T06:10:52.657Z,2.8
2022-10-07T06:17:12.657Z,2.8
2022-10-07T06:23:35.499Z,2.2
2022-10-07T06:29:55.537Z,2.2
2022-10-07T06:36:18.835Z,1.3
2022-10-07T06:42:38.529Z,1.3
2022-10-07T06:49:01.735Z,2.4
2022-10-07T06:55:21.529Z,2.4
2022-10-07T07:01:44.541Z,1.8
2022-10-07T07:08:04.653Z,1.8
2022-10-07T07:14:27.548Z,1.9
2022-10-07T07:20:47.718Z,1.9
2022-10-07T07:27:10.550Z,2.6
2022-10-07T07:33:30.535Z,2.6
2022-10-07T07:39:53.639Z,1.2
2022-10-07T07:46:13.743Z,1.2
2022-10-07T07:52:36.580Z,2.4
2022-10-07T07:58:56.767Z,2.4
2022-10-07T08:05:23.617Z,1.8
2022-10-07T08:21:45.250Z,1.8
2022-10-07T08:28:08.091Z,1.9
2022-10-07T08:34:27.621Z,1.9
2022-10-07T08:40:50.720Z,2
2022-10-07T08:47:10.524Z,2
2022-10-07T08:53:33.633Z,1.2
2022-10-07T08:59:53.542Z,1.2
2022-10-07T09:06:16.550Z,1.1
2022-10-07T09:12:36.548Z,1.1
2022-10-07T09:18:59.514Z,5.7
2022-10-07T09:25:19.594Z,5.7
2022-10-07T09:31:42.594Z,2.1
2022-10-07T09:38:02.598Z,2.1
2022-10-07T09:44:25.649Z,1.5
2022-10-07T09:50:45.724Z,1.5
2022-10-07T09:57:09.062Z,1
2022-10-07T10:03:28.551Z,1
2022-10-07T10:09:51.589Z,0.8
2022-10-07T10:16:11.642Z,0.8
2022-10-07T10:22:34.553Z,0.8
2022-10-07T10:28:54.558Z,0.8
2022-10-07T10:35:17.641Z,0.3
2022-10-07T10:41:37.554Z,0.3
2022-10-07T10:48:00.570Z,1.8
2022-10-07T10:54:20.523Z,1.8
2022-10-07T11:00:43.717Z,0.8
2022-10-07T11:07:03.821Z,0.8
2022-10-07T11:13:26.675Z,0.6
2022-10-07T11:19:46.904Z,0.6
2022-10-07T11:26:09.542Z,0.6
2022-10-07T11:32:29.633Z,0.6
2022-10-07T11:38:52.514Z,0.8
2022-10-07T11:45:12.611Z,0.8
2022-10-07T11:51:35.598Z,0.7
2022-10-07T11:57:55.605Z,0.7
2022-10-07T12:04:18.571Z,1.3
2022-10-07T12:10:38.654Z,1.3
2022-10-07T12:17:01.605Z,0.8
2022-10-07T12:23:21.525Z,0.8
2022-10-07T12:29:44.594Z,0.9
2022-10-07T12:36:04.635Z,0.9
2022-10-07T12:42:27.548Z,1.2
2022-10-07T12:48:47.682Z,1.2
2022-10-07T12:55:10.512Z,0.7
2022-10-07T13:01:30.762Z,0.7
2022-10-07T13:07:53.586Z,0.2
2022-10-07T13:30:42.470Z,0.6
2022-10-07T13:37:02.551Z,0.6
2022-10-07T13:43:25.590Z,0.9
2022-10-07T13:49:45.518Z,0.9
2022-10-07T13:56:08.497Z,0.7
2022-10-07T14:02:28.618Z,0.7
2022-10-07T14:08:51.503Z,0.8
2022-10-07T14:15:11.580Z,0.8
2022-10-07T14:21:34.535Z,0.4
2022-10-07T14:27:54.535Z,0.4
2022-10-07T14:34:17.552Z,0.7
2022-10-07T14:40:37.549Z,0.7
2022-10-07T14:47:00.608Z,1.2
2022-10-07T14:53:20.567Z,1.2
2022-10-07T14:59:43.665Z,0.2
2022-10-07T15:06:03.674Z,0.2
2022-10-07T15:12:26.511Z,0.8
2022-10-07T15:18:51.215Z,0.8
2022-10-07T15:25:09.566Z,0.2
2022-10-07T15:31:29.564Z,0.2
2022-10-07T15:37:52.598Z,0.5
2022-10-07T15:44:12.523Z,0.5
2022-10-07T15:50:35.567Z,1.1
2022-10-07T15:56:55.554Z,1.1
2022-10-07T16:03:18.571Z,0.8
2022-10-07T16:09:38.625Z,0.8
2022-10-07T16:16:01.655Z,3.3
2022-10-07T16:22:21.826Z,3.3
2022-10-07T16:28:44.877Z,1
2022-10-07T16:35:04.670Z,1
2022-10-07T16:41:27.571Z,1
2022-10-07T16:47:48.050Z,1
2022-10-07T16:54:10.644Z,0.6
2022-10-07T17:00:30.516Z,0.6
2022-10-07T17:06:53.627Z,0.4
2022-10-07T17:13:13.548Z,0.4
2022-10-07T17:19:36.539Z,0.8
2022-10-07T17:25:56.577Z,0.8
2022-10-07T17:32:19.482Z,0.6
2022-10-07T17:38:39.634Z,0.6
2022-10-07T17:45:02.545Z,1.4
2022-10-07T17:51:22.526Z,1.4
2022-10-07T17:57:45.902Z,1.4
2022-10-07T18:04:05.517Z,1.4
2022-10-07T18:10:28.569Z,2.1
2022-10-07T18:16:48.577Z,2.1
2022-10-07T18:23:11.551Z,2.7
2022-10-07T18:38:42.710Z,1.4
2022-10-07T18:45:02.527Z,1.4
2022-10-07T18:51:25.606Z,2.5
2022-10-07T18:57:45.934Z,2.5
2022-10-07T19:04:08.536Z,2.5
2022-10-07T19:10:28.575Z,2.5
2022-10-07T19:16:51.561Z,1.4
2022-10-07T19:23:11.585Z,1.4
2022-10-07T19:29:34.612Z,0.7
2022-10-07T19:35:54.705Z,0.7
2022-10-07T19:42:17.575Z,1
2022-10-07T19:48:37.524Z,1
2022-10-07T19:55:01.604Z,0.4
2022-10-07T20:01:21.622Z,0.4
2022-10-07T20:07:44.926Z,2.2
2022-10-07T20:14:04.641Z,2.2
2022-10-07T20:20:27.845Z,0.6
2022-10-07T20:26:47.594Z,0.6
2022-10-07T20:33:10.585Z,2.2
2022-10-07T20:39:30.631Z,2.2
2022-10-07T20:45:53.704Z,0.9
2022-10-07T20:52:14.190Z,0.9
2022-10-07T20:58:37.509Z,1.4
2022-10-07T21:04:57.534Z,1.4
2022-10-07T21:11:20.615Z,0.9
2022-10-07T21:17:40.698Z,0.9
2022-10-07T21:24:03.585Z,3.3
2022-10-07T21:30:23.624Z,3.3
2022-10-07T21:36:50.466Z,3.3
2022-10-07T21:43:06.579Z,3.3
2022-10-07T21:49:29.793Z,2.6
2022-10-07T21:55:49.568Z,2.6
2022-10-07T22:02:12.504Z,1
2022-10-07T22:25:09.534Z,4.5
2022-10-07T22:31:29.500Z,4.5
2022-10-07T22:37:52.536Z,4.5
2022-10-07T22:44:12.585Z,4.5
2022-10-07T22:50:35.510Z,2.1
2022-10-07T22:56:55.496Z,2.1
2022-10-07T23:03:18.698Z,2.1
2022-10-07T23:09:38.478Z,2.1
2022-10-07T23:16:01.628Z,1.8
2022-10-07T23:22:21.629Z,1.8
2022-10-07T23:28:44.646Z,1.6
2022-10-07T23:35:04.682Z,1.6
2022-10-07T23:41:27.610Z,3
2022-10-07T23:47:47.704Z,3
2022-10-07T23:54:10.580Z,3.1
